sensor_id;sensor_type;location;lat;lon;timestamp;P1;durP1;ratioP1;P2;durP2;ratioP2
11618;SDS011;5865;48.776;9.280;2023-04-06T00:01:17;10.70;;;7.60;;
11618;SDS011;5865;48.776;9.280;2023-04-06T00:03:44;10.53;;;7.10;;
11618;SDS011;5865;48.776;9.280;2023-04-06T00:06:12;13.07;;;7.20;;
11618;SDS011;5865;48.776;9.280;2023-04-06T00:08:40;10.30;;;7.60;;
11618;SDS011;5865;48.776;9.280;2023-04-06T00:11:08;10.13;;;7.77;;
11618;SDS011;5865;48.776;9.280;2023-04-06T00:13:35;10.83;;;7.20;;
11618;SDS011;5865;48.776;9.280;2023-04-06T00:16:04;11.97;;;8.37;;
11618;SDS011;5865;48.776;9.280;2023-04-06T00:18:32;9.83;;;7.60;;
11618;SDS011;5865;48.776;9.280;2023-04-06T00:20:59;10.50;;;7.83;;
11618;SDS011;5865;48.776;9.280;2023-04-06T00:23:30;10.47;;;7.30;;
11618;SDS011;5865;48.776;9.280;2023-04-06T00:25:57;11.70;;;7.93;;
11618;SDS011;5865;48.776;9.280;2023-04-06T00:28:25;10.00;;;7.57;;
11618;SDS011;5865;48.776;9.280;2023-04-06T00:30:52;10.23;;;7.53;;
11618;SDS011;5865;48.776;9.280;2023-04-06T00:33:21;10.00;;;7.70;;
11618;SDS011;5865;48.776;9.280;2023-04-06T00:35:49;10.33;;;7.80;;
11618;SDS011;5865;48.776;9.280;2023-04-06T00:38:41;10.50;;;7.80;;
11618;SDS011;5865;48.776;9.280;2023-04-06T00:41:08;11.77;;;7.80;;
11618;SDS011;5865;48.776;9.280;2023-04-06T00:43:36;10.20;;;7.70;;
11618;SDS011;5865;48.776;9.280;2023-04-06T00:46:05;10.90;;;8.13;;
11618;SDS011;5865;48.776;9.280;2023-04-06T00:48:32;12.87;;;8.13;;
11618;SDS011;5865;48.776;9.280;2023-04-06T00:51:00;12.07;;;8.37;;
11618;SDS011;5865;48.776;9.280;2023-04-06T00:53:28;10.93;;;8.53;;
11618;SDS011;5865;48.776;9.280;2023-04-06T00:56:01;10.67;;;8.10;;
11618;SDS011;5865;48.776;9.280;2023-04-06T00:58:38;13.67;;;8.53;;
11618;SDS011;5865;48.776;9.280;2023-04-06T01:01:08;11.03;;;8.27;;
11618;SDS011;5865;48.776;9.280;2023-04-06T01:03:36;9.87;;;7.67;;
11618;SDS011;5865;48.776;9.280;2023-04-06T01:06:04;12.70;;;7.97;;
11618;SDS011;5865;48.776;9.280;2023-04-06T01:08:36;12.67;;;8.40;;
11618;SDS011;5865;48.776;9.280;2023-04-06T01:11:33;10.97;;;7.70;;
11618;SDS011;5865;48.776;9.280;2023-04-06T01:14:05;11.23;;;8.13;;
11618;SDS011;5865;48.776;9.280;2023-04-06T01:16:46;12.40;;;7.93;;
11618;SDS011;5865;48.776;9.280;2023-04-06T01:19:16;12.77;;;8.80;;
11618;SDS011;5865;48.776;9.280;2023-04-06T01:21:50;11.57;;;8.63;;
11618;SDS011;5865;48.776;9.280;2023-04-06T01:24:32;11.50;;;8.50;;
11618;SDS011;5865;48.776;9.280;2023-04-06T01:27:16;11.93;;;8.17;;
11618;SDS011;5865;48.776;9.280;2023-04-06T01:30:11;10.47;;;7.87;;
11618;SDS011;5865;48.776;9.280;2023-04-06T01:32:55;12.33;;;8.87;;
11618;SDS011;5865;48.776;9.280;2023-04-06T01:35:36;12.40;;;8.33;;
11618;SDS011;5865;48.776;9.280;2023-04-06T01:38:18;13.60;;;8.50;;
11618;SDS011;5865;48.776;9.280;2023-04-06T01:40:48;11.53;;;8.00;;
11618;SDS011;5865;48.776;9.280;2023-04-06T01:43:19;11.80;;;8.77;;
11618;SDS011;5865;48.776;9.280;2023-04-06T01:46:14;12.37;;;8.80;;
11618;SDS011;5865;48.776;9.280;2023-04-06T01:48:43;10.90;;;8.20;;
11618;SDS011;5865;48.776;9.280;2023-04-06T01:51:19;10.90;;;8.20;;
11618;SDS011;5865;48.776;9.280;2023-04-06T01:53:56;12.60;;;8.33;;
11618;SDS011;5865;48.776;9.280;2023-04-06T01:56:34;12.50;;;8.43;;
11618;SDS011;5865;48.776;9.280;2023-04-06T01:59:18;13.47;;;8.43;;
11618;SDS011;5865;48.776;9.280;2023-04-06T02:01:45;12.00;;;8.97;;
11618;SDS011;5865;48.776;9.280;2023-04-06T02:04:13;12.20;;;8.47;;
11618;SDS011;5865;48.776;9.280;2023-04-06T02:06:42;11.57;;;8.47;;
11618;SDS011;5865;48.776;9.280;2023-04-06T02:09:11;11.63;;;8.50;;
11618;SDS011;5865;48.776;9.280;2023-04-06T02:11:40;12.50;;;8.37;;
11618;SDS011;5865;48.776;9.280;2023-04-06T02:14:07;11.23;;;8.33;;
11618;SDS011;5865;48.776;9.280;2023-04-06T02:16:43;13.30;;;9.00;;
11618;SDS011;5865;48.776;9.280;2023-04-06T02:19:10;12.13;;;8.67;;
11618;SDS011;5865;48.776;9.280;2023-04-06T02:21:37;12.47;;;8.53;;
11618;SDS011;5865;48.776;9.280;2023-04-06T02:24:04;11.57;;;8.43;;
11618;SDS011;5865;48.776;9.280;2023-04-06T02:26:32;11.63;;;8.10;;
11618;SDS011;5865;48.776;9.280;2023-04-06T02:29:00;13.20;;;8.90;;
11618;SDS011;5865;48.776;9.280;2023-04-06T02:31:27;13.47;;;8.60;;
11618;SDS011;5865;48.776;9.280;2023-04-06T02:33:55;11.97;;;8.40;;
11618;SDS011;5865;48.776;9.280;2023-04-06T02:36:22;13.40;;;9.27;;
11618;SDS011;5865;48.776;9.280;2023-04-06T02:38:50;13.00;;;8.83;;
11618;SDS011;5865;48.776;9.280;2023-04-06T02:41:17;12.80;;;8.27;;
11618;SDS011;5865;48.776;9.280;2023-04-06T02:43:44;11.63;;;8.27;;
11618;SDS011;5865;48.776;9.280;2023-04-06T02:46:27;12.70;;;8.70;;
11618;SDS011;5865;48.776;9.280;2023-04-06T02:48:56;12.07;;;8.83;;
11618;SDS011;5865;48.776;9.280;2023-04-06T02:51:26;11.70;;;8.23;;
11618;SDS011;5865;48.776;9.280;2023-04-06T02:54:03;14.77;;;8.63;;
11618;SDS011;5865;48.776;9.280;2023-04-06T02:56:31;12.33;;;8.37;;
11618;SDS011;5865;48.776;9.280;2023-04-06T02:58:59;12.17;;;9.03;;
11618;SDS011;5865;48.776;9.280;2023-04-06T03:01:30;13.60;;;8.90;;
11618;SDS011;5865;48.776;9.280;2023-04-06T03:04:01;14.37;;;9.07;;
11618;SDS011;5865;48.776;9.280;2023-04-06T03:06:28;12.87;;;8.73;;
11618;SDS011;5865;48.776;9.280;2023-04-06T03:09:20;13.63;;;8.70;;
11618;SDS011;5865;48.776;9.280;2023-04-06T03:11:47;13.93;;;9.33;;
11618;SDS011;5865;48.776;9.280;2023-04-06T03:14:14;13.07;;;8.77;;
11618;SDS011;5865;48.776;9.280;2023-04-06T03:16:49;12.40;;;9.23;;
11618;SDS011;5865;48.776;9.280;2023-04-06T03:19:20;14.77;;;9.27;;
11618;SDS011;5865;48.776;9.280;2023-04-06T03:21:48;14.20;;;9.77;;
11618;SDS011;5865;48.776;9.280;2023-04-06T03:24:17;13.27;;;9.20;;
11618;SDS011;5865;48.776;9.280;2023-04-06T03:26:44;14.33;;;8.93;;
11618;SDS011;5865;48.776;9.280;2023-04-06T03:29:13;13.23;;;9.13;;
11618;SDS011;5865;48.776;9.280;2023-04-06T03:34:18;13.03;;;9.03;;
11618;SDS011;5865;48.776;9.280;2023-04-06T03:36:45;12.13;;;8.70;;
11618;SDS011;5865;48.776;9.280;2023-04-06T03:43:00;11.57;;;7.97;;
11618;SDS011;5865;48.776;9.280;2023-04-06T03:45:31;12.30;;;8.33;;
11618;SDS011;5865;48.776;9.280;2023-04-06T03:47:58;13.73;;;9.33;;
11618;SDS011;5865;48.776;9.280;2023-04-06T03:50:27;14.60;;;9.60;;
11618;SDS011;5865;48.776;9.280;2023-04-06T03:52:54;12.73;;;9.20;;
11618;SDS011;5865;48.776;9.280;2023-04-06T03:55:21;13.37;;;8.90;;
11618;SDS011;5865;48.776;9.280;2023-04-06T03:57:48;13.47;;;9.07;;
11618;SDS011;5865;48.776;9.280;2023-04-06T04:00:17;14.87;;;9.80;;
11618;SDS011;5865;48.776;9.280;2023-04-06T04:02:47;12.83;;;8.77;;
11618;SDS011;5865;48.776;9.280;2023-04-06T04:05:14;13.80;;;9.27;;
11618;SDS011;5865;48.776;9.280;2023-04-06T04:07:43;12.23;;;9.40;;
11618;SDS011;5865;48.776;9.280;2023-04-06T04:10:11;13.73;;;9.33;;
11618;SDS011;5865;48.776;9.280;2023-04-06T04:12:38;12.93;;;8.93;;
11618;SDS011;5865;48.776;9.280;2023-04-06T04:15:06;15.60;;;9.37;;
11618;SDS011;5865;48.776;9.280;2023-04-06T04:17:34;12.37;;;8.90;;
11618;SDS011;5865;48.776;9.280;2023-04-06T04:20:01;13.57;;;9.33;;
11618;SDS011;5865;48.776;9.280;2023-04-06T04:22:29;12.60;;;8.80;;
11618;SDS011;5865;48.776;9.280;2023-04-06T04:24:57;12.27;;;9.17;;
11618;SDS011;5865;48.776;9.280;2023-04-06T04:27:26;13.43;;;9.03;;
11618;SDS011;5865;48.776;9.280;2023-04-06T04:29:54;12.10;;;8.90;;
11618;SDS011;5865;48.776;9.280;2023-04-06T04:32:21;12.93;;;9.20;;
11618;SDS011;5865;48.776;9.280;2023-04-06T04:34:52;15.03;;;10.10;;
11618;SDS011;5865;48.776;9.280;2023-04-06T04:37:36;14.60;;;9.80;;
11618;SDS011;5865;48.776;9.280;2023-04-06T04:59:51;14.73;;;9.90;;
11618;SDS011;5865;48.776;9.280;2023-04-06T05:02:21;14.30;;;9.90;;
11618;SDS011;5865;48.776;9.280;2023-04-06T05:05:31;13.27;;;9.60;;
11618;SDS011;5865;48.776;9.280;2023-04-06T05:08:02;18.60;;;10.33;;
11618;SDS011;5865;48.776;9.280;2023-04-06T05:10:39;13.87;;;9.83;;
11618;SDS011;5865;48.776;9.280;2023-04-06T05:13:13;16.33;;;11.33;;
11618;SDS011;5865;48.776;9.280;2023-04-06T05:31:43;23.17;;;10.63;;
11618;SDS011;5865;48.776;9.280;2023-04-06T05:34:24;25.93;;;10.43;;
11618;SDS011;5865;48.776;9.280;2023-04-06T05:37:06;14.43;;;9.97;;
11618;SDS011;5865;48.776;9.280;2023-04-06T05:39:40;15.17;;;9.70;;
11618;SDS011;5865;48.776;9.280;2023-04-06T05:42:09;11.67;;;9.40;;
11618;SDS011;5865;48.776;9.280;2023-04-06T05:44:55;14.23;;;9.10;;
11618;SDS011;5865;48.776;9.280;2023-04-06T05:47:24;12.73;;;9.60;;
11618;SDS011;5865;48.776;9.280;2023-04-06T05:49:59;15.70;;;9.90;;
11618;SDS011;5865;48.776;9.280;2023-04-06T05:52:41;13.07;;;9.03;;
11618;SDS011;5865;48.776;9.280;2023-04-06T05:55:14;13.00;;;9.23;;
11618;SDS011;5865;48.776;9.280;2023-04-06T05:57:48;15.00;;;9.83;;
11618;SDS011;5865;48.776;9.280;2023-04-06T06:00:29;13.43;;;9.10;;
11618;SDS011;5865;48.776;9.280;2023-04-06T06:22:16;10.83;;;8.10;;
11618;SDS011;5865;48.776;9.280;2023-04-06T06:24:58;12.97;;;9.03;;
11618;SDS011;5865;48.776;9.280;2023-04-06T06:27:25;11.17;;;8.47;;
11618;SDS011;5865;48.776;9.280;2023-04-06T06:30:02;11.90;;;9.10;;
11618;SDS011;5865;48.776;9.280;2023-04-06T06:32:31;10.33;;;8.20;;
11618;SDS011;5865;48.776;9.280;2023-04-06T06:34:59;10.50;;;7.97;;
11618;SDS011;5865;48.776;9.280;2023-04-06T06:37:29;11.60;;;8.03;;
11618;SDS011;5865;48.776;9.280;2023-04-06T06:39:59;10.07;;;8.10;;
11618;SDS011;5865;48.776;9.280;2023-04-06T06:42:43;11.73;;;8.03;;
11618;SDS011;5865;48.776;9.280;2023-04-06T06:45:31;10.67;;;7.77;;
11618;SDS011;5865;48.776;9.280;2023-04-06T06:47:58;9.70;;;7.73;;
11618;SDS011;5865;48.776;9.280;2023-04-06T06:50:41;10.33;;;7.70;;
11618;SDS011;5865;48.776;9.280;2023-04-06T06:53:15;12.37;;;7.50;;
11618;SDS011;5865;48.776;9.280;2023-04-06T06:55:56;13.93;;;7.17;;
11618;SDS011;5865;48.776;9.280;2023-04-06T06:58:23;10.93;;;6.80;;
11618;SDS011;5865;48.776;9.280;2023-04-06T07:00:50;11.77;;;7.40;;
11618;SDS011;5865;48.776;9.280;2023-04-06T07:03:23;9.17;;;7.13;;
11618;SDS011;5865;48.776;9.280;2023-04-06T07:05:58;9.50;;;6.90;;
11618;SDS011;5865;48.776;9.280;2023-04-06T07:08:27;12.70;;;7.63;;
11618;SDS011;5865;48.776;9.280;2023-04-06T07:11:08;11.90;;;7.23;;
11618;SDS011;5865;48.776;9.280;2023-04-06T07:13:36;10.77;;;7.50;;
11618;SDS011;5865;48.776;9.280;2023-04-06T07:16:03;9.27;;;6.90;;
11618;SDS011;5865;48.776;9.280;2023-04-06T07:18:33;8.97;;;6.70;;
11618;SDS011;5865;48.776;9.280;2023-04-06T07:21:00;9.90;;;7.40;;
11618;SDS011;5865;48.776;9.280;2023-04-06T07:23:28;9.30;;;7.13;;
11618;SDS011;5865;48.776;9.280;2023-04-06T07:25:56;9.83;;;7.00;;
11618;SDS011;5865;48.776;9.280;2023-04-06T07:28:23;11.23;;;7.20;;
11618;SDS011;5865;48.776;9.280;2023-04-06T07:30:50;9.10;;;6.97;;
11618;SDS011;5865;48.776;9.280;2023-04-06T07:33:20;7.80;;;6.53;;
11618;SDS011;5865;48.776;9.280;2023-04-06T07:35:50;10.23;;;7.03;;
11618;SDS011;5865;48.776;9.280;2023-04-06T07:38:24;8.13;;;7.13;;
11618;SDS011;5865;48.776;9.280;2023-04-06T09:54:41;13.80;;;7.00;;
11618;SDS011;5865;48.776;9.280;2023-04-06T09:57:31;8.37;;;6.10;;
11618;SDS011;5865;48.776;9.280;2023-04-06T10:00:16;8.33;;;6.37;;
11618;SDS011;5865;48.776;9.280;2023-04-06T10:03:11;6.87;;;5.37;;
11618;SDS011;5865;48.776;9.280;2023-04-06T10:05:59;6.83;;;5.40;;
11618;SDS011;5865;48.776;9.280;2023-04-06T10:08:51;6.90;;;5.03;;
11618;SDS011;5865;48.776;9.280;2023-04-06T10:27:12;5.57;;;4.33;;
11618;SDS011;5865;48.776;9.280;2023-04-06T10:29:46;5.83;;;3.90;;
11618;SDS011;5865;48.776;9.280;2023-04-06T10:32:31;4.70;;;4.00;;
11618;SDS011;5865;48.776;9.280;2023-04-06T10:35:15;6.50;;;5.20;;
11618;SDS011;5865;48.776;9.280;2023-04-06T10:38:05;7.00;;;5.07;;
11618;SDS011;5865;48.776;9.280;2023-04-06T10:40:49;6.30;;;4.70;;
11618;SDS011;5865;48.776;9.280;2023-04-06T12:13:54;6.10;;;4.60;;
11618;SDS011;5865;48.776;9.280;2023-04-06T12:16:41;4.40;;;3.80;;
11618;SDS011;5865;48.776;9.280;2023-04-06T12:19:23;6.30;;;4.40;;
11618;SDS011;5865;48.776;9.280;2023-04-06T12:22:24;5.03;;;4.20;;
11618;SDS011;5865;48.776;9.280;2023-04-06T12:25:34;5.60;;;4.63;;
11618;SDS011;5865;48.776;9.280;2023-04-06T12:28:24;5.75;;;4.15;;
11618;SDS011;5865;48.776;9.280;2023-04-06T12:56:36;5.40;;;4.05;;
11618;SDS011;5865;48.776;9.280;2023-04-06T13:02:58;4.95;;;3.75;;
11618;SDS011;5865;48.776;9.280;2023-04-06T13:05:55;4.68;;;3.90;;
11618;SDS011;5865;48.776;9.280;2023-04-06T13:08:53;5.35;;;3.67;;
11618;SDS011;5865;48.776;9.280;2023-04-06T14:46:47;6.03;;;4.32;;
11618;SDS011;5865;48.776;9.280;2023-04-06T14:49:15;5.22;;;4.10;;
11618;SDS011;5865;48.776;9.280;2023-04-06T14:51:42;4.75;;;3.97;;
11618;SDS011;5865;48.776;9.280;2023-04-06T14:54:09;5.00;;;4.28;;
11618;SDS011;5865;48.776;9.280;2023-04-06T14:56:36;6.05;;;4.57;;
11618;SDS011;5865;48.776;9.280;2023-04-06T14:59:04;7.45;;;4.47;;
11618;SDS011;5865;48.776;9.280;2023-04-06T15:01:33;4.85;;;4.10;;
11618;SDS011;5865;48.776;9.280;2023-04-06T15:04:03;5.85;;;4.35;;
11618;SDS011;5865;48.776;9.280;2023-04-06T15:06:31;4.97;;;4.00;;
11618;SDS011;5865;48.776;9.280;2023-04-06T15:08:58;7.28;;;4.43;;
11618;SDS011;5865;48.776;9.280;2023-04-06T15:11:25;7.10;;;4.47;;
11618;SDS011;5865;48.776;9.280;2023-04-06T15:13:53;4.90;;;4.40;;
11618;SDS011;5865;48.776;9.280;2023-04-06T15:16:20;5.03;;;4.00;;
11618;SDS011;5865;48.776;9.280;2023-04-06T15:18:47;5.72;;;4.15;;
11618;SDS011;5865;48.776;9.280;2023-04-06T15:21:15;5.65;;;4.00;;
11618;SDS011;5865;48.776;9.280;2023-04-06T15:23:45;5.63;;;4.40;;
11618;SDS011;5865;48.776;9.280;2023-04-06T15:26:12;4.90;;;3.88;;
11618;SDS011;5865;48.776;9.280;2023-04-06T15:28:39;5.55;;;4.30;;
11618;SDS011;5865;48.776;9.280;2023-04-06T15:31:12;5.00;;;4.35;;
11618;SDS011;5865;48.776;9.280;2023-04-06T15:33:40;5.97;;;4.40;;
11618;SDS011;5865;48.776;9.280;2023-04-06T15:36:08;5.07;;;4.10;;
11618;SDS011;5865;48.776;9.280;2023-04-06T15:38:51;5.95;;;4.47;;
11618;SDS011;5865;48.776;9.280;2023-04-06T15:41:21;5.50;;;4.07;;
11618;SDS011;5865;48.776;9.280;2023-04-06T15:43:49;4.72;;;4.18;;
11618;SDS011;5865;48.776;9.280;2023-04-06T15:46:16;5.22;;;4.05;;
11618;SDS011;5865;48.776;9.280;2023-04-06T15:48:45;5.18;;;4.20;;
11618;SDS011;5865;48.776;9.280;2023-04-06T15:51:14;5.78;;;4.13;;
11618;SDS011;5865;48.776;9.280;2023-04-06T15:53:43;4.63;;;3.88;;
11618;SDS011;5865;48.776;9.280;2023-04-06T15:56:10;5.43;;;3.92;;
11618;SDS011;5865;48.776;9.280;2023-04-06T15:58:38;5.70;;;4.18;;
11618;SDS011;5865;48.776;9.280;2023-04-06T16:01:12;6.68;;;5.05;;
11618;SDS011;5865;48.776;9.280;2023-04-06T16:03:39;5.18;;;3.97;;
11618;SDS011;5865;48.776;9.280;2023-04-06T16:06:07;4.55;;;3.80;;
11618;SDS011;5865;48.776;9.280;2023-04-06T16:08:34;5.60;;;4.45;;
11618;SDS011;5865;48.776;9.280;2023-04-06T16:11:03;4.93;;;4.20;;
11618;SDS011;5865;48.776;9.280;2023-04-06T16:13:31;6.22;;;4.15;;
11618;SDS011;5865;48.776;9.280;2023-04-06T16:15:58;8.45;;;4.63;;
11618;SDS011;5865;48.776;9.280;2023-04-06T16:18:26;6.20;;;4.45;;
11618;SDS011;5865;48.776;9.280;2023-04-06T16:20:53;6.13;;;4.30;;
11618;SDS011;5865;48.776;9.280;2023-04-06T16:23:20;5.78;;;4.13;;
11618;SDS011;5865;48.776;9.280;2023-04-06T16:25:50;6.57;;;4.43;;
11618;SDS011;5865;48.776;9.280;2023-04-06T16:28:19;5.45;;;4.40;;
11618;SDS011;5865;48.776;9.280;2023-04-06T16:30:48;6.07;;;4.05;;
11618;SDS011;5865;48.776;9.280;2023-04-06T16:33:15;7.05;;;4.28;;
11618;SDS011;5865;48.776;9.280;2023-04-06T16:35:43;4.88;;;3.92;;
11618;SDS011;5865;48.776;9.280;2023-04-06T16:38:11;6.00;;;4.65;;
11618;SDS011;5865;48.776;9.280;2023-04-06T16:40:38;6.07;;;4.30;;
11618;SDS011;5865;48.776;9.280;2023-04-06T16:43:05;6.65;;;4.65;;
11618;SDS011;5865;48.776;9.280;2023-04-06T16:45:36;4.95;;;4.38;;
11618;SDS011;5865;48.776;9.280;2023-04-06T16:48:03;5.80;;;4.28;;
11618;SDS011;5865;48.776;9.280;2023-04-06T16:50:31;6.05;;;4.55;;
11618;SDS011;5865;48.776;9.280;2023-04-06T16:53:00;6.93;;;4.80;;
11618;SDS011;5865;48.776;9.280;2023-04-06T16:55:27;5.53;;;4.72;;
11618;SDS011;5865;48.776;9.280;2023-04-06T16:57:55;7.03;;;4.63;;
11618;SDS011;5865;48.776;9.280;2023-04-06T17:00:22;5.90;;;4.53;;
11618;SDS011;5865;48.776;9.280;2023-04-06T17:02:50;7.67;;;5.17;;
11618;SDS011;5865;48.776;9.280;2023-04-06T17:05:18;5.90;;;4.70;;
11618;SDS011;5865;48.776;9.280;2023-04-06T17:07:48;7.97;;;4.13;;
11618;SDS011;5865;48.776;9.280;2023-04-06T17:10:23;7.17;;;5.23;;
11618;SDS011;5865;48.776;9.280;2023-04-06T17:12:50;6.10;;;4.57;;
11618;SDS011;5865;48.776;9.280;2023-04-06T17:15:18;6.70;;;5.20;;
11618;SDS011;5865;48.776;9.280;2023-04-06T17:17:45;7.67;;;5.07;;
11618;SDS011;5865;48.776;9.280;2023-04-06T17:20:14;6.83;;;5.13;;
11618;SDS011;5865;48.776;9.280;2023-04-06T17:22:41;6.63;;;5.10;;
11618;SDS011;5865;48.776;9.280;2023-04-06T17:25:10;5.67;;;4.63;;
11618;SDS011;5865;48.776;9.280;2023-04-06T17:27:39;6.90;;;5.13;;
11618;SDS011;5865;48.776;9.280;2023-04-06T17:30:07;7.17;;;5.43;;
11618;SDS011;5865;48.776;9.280;2023-04-06T17:32:35;8.83;;;5.90;;
11618;SDS011;5865;48.776;9.280;2023-04-06T17:35:02;7.97;;;5.50;;
11618;SDS011;5865;48.776;9.280;2023-04-06T17:37:31;8.73;;;5.63;;
11618;SDS011;5865;48.776;9.280;2023-04-06T17:39:59;8.70;;;5.33;;
11618;SDS011;5865;48.776;9.280;2023-04-06T17:42:26;9.53;;;5.20;;
11618;SDS011;5865;48.776;9.280;2023-04-06T17:44:53;8.63;;;5.23;;
11618;SDS011;5865;48.776;9.280;2023-04-06T17:47:20;5.87;;;4.43;;
11618;SDS011;5865;48.776;9.280;2023-04-06T17:49:49;5.50;;;4.13;;
11618;SDS011;5865;48.776;9.280;2023-04-06T17:52:17;5.40;;;4.43;;
11618;SDS011;5865;48.776;9.280;2023-04-06T17:54:45;8.90;;;4.70;;
11618;SDS011;5865;48.776;9.280;2023-04-06T17:57:14;6.87;;;4.37;;
11618;SDS011;5865;48.776;9.280;2023-04-06T17:59:41;5.37;;;4.13;;
11618;SDS011;5865;48.776;9.280;2023-04-06T18:02:09;6.03;;;3.60;;
11618;SDS011;5865;48.776;9.280;2023-04-06T18:04:36;6.13;;;4.70;;
11618;SDS011;5865;48.776;9.280;2023-04-06T18:07:06;5.77;;;3.83;;
11618;SDS011;5865;48.776;9.280;2023-04-06T18:09:33;7.53;;;4.77;;
11618;SDS011;5865;48.776;9.280;2023-04-06T18:12:02;5.70;;;4.30;;
11618;SDS011;5865;48.776;9.280;2023-04-06T18:14:30;6.63;;;4.10;;
11618;SDS011;5865;48.776;9.280;2023-04-06T18:16:57;6.03;;;3.90;;
11618;SDS011;5865;48.776;9.280;2023-04-06T18:19:25;6.13;;;3.50;;
11618;SDS011;5865;48.776;9.280;2023-04-06T18:21:53;5.67;;;3.90;;
11618;SDS011;5865;48.776;9.280;2023-04-06T18:24:20;6.40;;;4.50;;
11618;SDS011;5865;48.776;9.280;2023-04-06T18:26:49;8.33;;;4.70;;
11618;SDS011;5865;48.776;9.280;2023-04-06T18:29:17;7.10;;;4.13;;
11618;SDS011;5865;48.776;9.280;2023-04-06T18:31:50;6.27;;;4.13;;
11618;SDS011;5865;48.776;9.280;2023-04-06T18:34:45;7.07;;;4.10;;
11618;SDS011;5865;48.776;9.280;2023-04-06T18:37:48;5.53;;;4.13;;
11618;SDS011;5865;48.776;9.280;2023-04-06T18:41:26;6.47;;;4.10;;
11618;SDS011;5865;48.776;9.280;2023-04-06T18:44:14;5.63;;;3.90;;
11618;SDS011;5865;48.776;9.280;2023-04-06T18:53:21;5.03;;;3.90;;
11618;SDS011;5865;48.776;9.280;2023-04-06T18:56:16;6.67;;;4.30;;
11618;SDS011;5865;48.776;9.280;2023-04-06T19:02:12;5.33;;;3.67;;
11618;SDS011;5865;48.776;9.280;2023-04-06T19:05:23;5.13;;;4.03;;
11618;SDS011;5865;48.776;9.280;2023-04-06T19:14:36;6.60;;;4.40;;
11618;SDS011;5865;48.776;9.280;2023-04-06T19:17:20;6.13;;;4.40;;
11618;SDS011;5865;48.776;9.280;2023-04-06T19:20:08;6.20;;;4.63;;
11618;SDS011;5865;48.776;9.280;2023-04-06T19:23:12;9.63;;;4.50;;
11618;SDS011;5865;48.776;9.280;2023-04-06T19:25:59;5.93;;;4.00;;
11618;SDS011;5865;48.776;9.280;2023-04-06T19:28:57;5.53;;;3.50;;
11618;SDS011;5865;48.776;9.280;2023-04-06T19:31:55;6.53;;;4.67;;
11618;SDS011;5865;48.776;9.280;2023-04-06T19:34:41;5.73;;;4.07;;
11618;SDS011;5865;48.776;9.280;2023-04-06T19:37:33;5.27;;;3.80;;
11618;SDS011;5865;48.776;9.280;2023-04-06T19:40:31;4.47;;;3.00;;
11618;SDS011;5865;48.776;9.280;2023-04-06T19:43:08;6.33;;;3.63;;
11618;SDS011;5865;48.776;9.280;2023-04-06T19:45:45;6.10;;;3.30;;
11618;SDS011;5865;48.776;9.280;2023-04-06T19:48:23;6.87;;;4.30;;
11618;SDS011;5865;48.776;9.280;2023-04-06T19:50:54;4.17;;;3.20;;
11618;SDS011;5865;48.776;9.280;2023-04-06T19:53:26;5.13;;;3.70;;
11618;SDS011;5865;48.776;9.280;2023-04-06T19:55:58;4.50;;;2.97;;
11618;SDS011;5865;48.776;9.280;2023-04-06T19:58:35;4.90;;;3.47;;
11618;SDS011;5865;48.776;9.280;2023-04-06T20:01:13;4.47;;;3.27;;
11618;SDS011;5865;48.776;9.280;2023-04-06T20:03:45;4.60;;;3.20;;
11618;SDS011;5865;48.776;9.280;2023-04-06T20:06:28;4.93;;;3.30;;
11618;SDS011;5865;48.776;9.280;2023-04-06T20:09:12;4.10;;;2.70;;
11618;SDS011;5865;48.776;9.280;2023-04-06T20:11:48;3.90;;;2.70;;
11618;SDS011;5865;48.776;9.280;2023-04-06T20:14:28;3.53;;;2.60;;
11618;SDS011;5865;48.776;9.280;2023-04-06T20:17:10;4.33;;;2.50;;
11618;SDS011;5865;48.776;9.280;2023-04-06T20:44:02;4.07;;;2.23;;
11618;SDS011;5865;48.776;9.280;2023-04-06T20:46:36;2.90;;;2.27;;
11618;SDS011;5865;48.776;9.280;2023-04-06T20:49:54;3.30;;;2.60;;
11618;SDS011;5865;48.776;9.280;2023-04-06T20:55:11;3.83;;;2.70;;
11618;SDS011;5865;48.776;9.280;2023-04-06T20:58:19;3.53;;;2.47;;
11618;SDS011;5865;48.776;9.280;2023-04-06T21:01:29;3.50;;;2.37;;
11618;SDS011;5865;48.776;9.280;2023-04-06T21:04:28;4.80;;;2.63;;
11618;SDS011;5865;48.776;9.280;2023-04-06T21:07:15;3.70;;;2.77;;
11618;SDS011;5865;48.776;9.280;2023-04-06T21:10:00;3.27;;;2.50;;
11618;SDS011;5865;48.776;9.280;2023-04-06T21:12:51;3.53;;;2.80;;
11618;SDS011;5865;48.776;9.280;2023-04-06T21:15:43;3.90;;;2.77;;
11618;SDS011;5865;48.776;9.280;2023-04-06T22:44:09;6.73;;;5.47;;
11618;SDS011;5865;48.776;9.280;2023-04-06T22:46:50;6.73;;;5.33;;
11618;SDS011;5865;48.776;9.280;2023-04-06T22:49:31;7.93;;;5.80;;
11618;SDS011;5865;48.776;9.280;2023-04-06T22:52:12;8.00;;;6.23;;
11618;SDS011;5865;48.776;9.280;2023-04-06T22:54:54;6.07;;;5.27;;
11618;SDS011;5865;48.776;9.280;2023-04-06T22:57:35;7.13;;;5.70;;
11618;SDS011;5865;48.776;9.280;2023-04-06T23:25:23;8.87;;;6.07;;
11618;SDS011;5865;48.776;9.280;2023-04-06T23:28:05;7.20;;;5.80;;
11618;SDS011;5865;48.776;9.280;2023-04-06T23:30:36;7.63;;;5.70;;
11618;SDS011;5865;48.776;9.280;2023-04-06T23:33:17;8.07;;;5.90;;
11618;SDS011;5865;48.776;9.280;2023-04-06T23:35:58;7.77;;;6.10;;
11618;SDS011;5865;48.776;9.280;2023-04-06T23:38:43;7.13;;;5.57;;
11618;SDS011;5865;48.776;9.280;2023-04-06T23:41:25;8.17;;;6.20;;
11618;SDS011;5865;48.776;9.280;2023-04-06T23:44:06;8.10;;;6.63;;
11618;SDS011;5865;48.776;9.280;2023-04-06T23:46:47;10.17;;;6.40;;
11618;SDS011;5865;48.776;9.280;2023-04-06T23:49:30;9.90;;;6.07;;
11618;SDS011;5865;48.776;9.280;2023-04-06T23:52:13;8.00;;;6.13;;
